Time;durP1;ratioP1;P1;durP2;ratioP2;P2;SDS_P1;SDS_P2;PMS_P1;PMS_P2;Temp;Humidity;BMP_temperature;BMP_pressure;BME280_temperature;BME280_humidity;BME280_pressure;Samples;Min_cycle;Max_cycle;Signal;HPM_P1;HPM_P2
2023/01/26 00:01:16;;;;;;;3.05;2.85;;;-0.70;99.90;;;;;;6151092;23;20897;-76
2023/01/26 00:03:43;;;;;;;2.90;2.80;;;-0.70;99.90;;;;;;6126195;23;20731;-76
2023/01/26 00:06:13;;;;;;;2.80;2.70;;;-0.70;99.90;;;;;;6105620;23;20411;-76
2023/01/26 00:08:42;;;;;;;2.90;2.80;;;-0.70;99.90;;;;;;6096024;23;20689;-77
2023/01/26 00:11:12;;;;;;;2.73;2.57;;;-0.70;99.90;;;;;;6095276;23;20383;-77
2023/01/26 00:13:40;;;;;;;3.30;3.10;;;-0.70;99.90;;;;;;6095907;23;20387;-81
2023/01/26 00:16:13;;;;;;;3.70;3.50;;;-0.80;99.90;;;;;;6118716;23;20923;-76
2023/01/26 00:18:41;;;;;;;4.20;3.90;;;-0.80;99.90;;;;;;6096295;23;20859;-76
2023/01/26 00:21:13;;;;;;;4.63;4.22;;;-0.80;99.90;;;;;;6095179;23;20376;-76
2023/01/26 00:23:40;;;;;;;4.85;4.45;;;-0.80;99.90;;;;;;6095369;23;20372;-77
2023/01/26 00:26:09;;;;;;;3.58;3.38;;;-0.70;99.90;;;;;;6096183;23;20388;-77
2023/01/26 00:28:36;;;;;;;2.70;2.60;;;-0.80;99.90;;;;;;6097060;23;20421;-77
2023/01/26 00:31:05;;;;;;;2.97;2.88;;;-0.80;99.90;;;;;;6121825;23;20418;-76
2023/01/26 00:33:32;;;;;;;3.22;3.03;;;-0.80;99.90;;;;;;6096412;23;20451;-76
2023/01/26 00:35:59;;;;;;;3.15;3.00;;;-0.80;99.90;;;;;;6097071;23;20709;-76
2023/01/26 00:38:26;;;;;;;2.20;2.10;;;-0.90;99.90;;;;;;6121260;23;20447;-76
2023/01/26 00:40:53;;;;;;;2.28;2.10;;;-0.90;99.90;;;;;;6097055;23;20394;-77
2023/01/26 00:43:20;;;;;;;1.90;1.80;;;-0.90;99.90;;;;;;6095367;23;20756;-76
2023/01/26 00:45:47;;;;;;;2.55;2.45;;;-0.90;99.90;;;;;;6096827;23;20431;-76
2023/01/26 00:48:15;;;;;;;2.10;2.00;;;-0.90;99.90;;;;;;6094740;23;20384;-76
2023/01/26 00:50:43;;;;;;;2.05;1.95;;;-0.90;99.90;;;;;;6122057;23;20408;-77
2023/01/26 00:53:10;;;;;;;2.22;2.13;;;-0.90;99.90;;;;;;6095178;23;20383;-76
2023/01/26 00:55:37;;;;;;;2.05;1.95;;;-0.90;99.90;;;;;;6096977;23;20399;-78
2023/01/26 00:58:06;;;;;;;2.25;2.15;;;-1.00;99.90;;;;;;6093882;23;20482;-76
2023/01/26 01:00:36;;;;;;;2.30;2.20;;;-0.90;99.90;;;;;;6096591;23;20380;-78
2023/01/26 01:03:03;;;;;;;2.50;2.40;;;-0.90;99.90;;;;;;6096613;23;20435;-77
2023/01/26 01:05:32;;;;;;;2.53;2.42;;;-0.90;99.90;;;;;;6118884;23;20760;-76
2023/01/26 01:07:59;;;;;;;2.88;2.78;;;-0.90;99.90;;;;;;6072462;23;20388;-76
2023/01/26 01:10:26;;;;;;;2.38;2.28;;;-0.90;99.90;;;;;;6095878;23;20443;-76
2023/01/26 01:12:53;;;;;;;2.35;2.25;;;-0.90;99.90;;;;;;6095925;23;20694;-77
2023/01/26 01:15:20;;;;;;;2.50;2.40;;;-0.90;99.90;;;;;;6095992;23;20701;-76
2023/01/26 01:17:47;;;;;;;2.15;2.05;;;-0.90;99.90;;;;;;6121948;23;20437;-77
2023/01/26 01:20:14;;;;;;;2.13;2.03;;;-0.80;99.90;;;;;;6095881;23;20733;-76
2023/01/26 01:22:41;;;;;;;2.45;2.35;;;-0.80;99.90;;;;;;6121932;23;20760;-78
2023/01/26 01:25:08;;;;;;;2.70;2.60;;;-0.80;99.90;;;;;;6096611;23;20384;-77
2023/01/26 01:27:35;;;;;;;2.65;2.55;;;-0.70;99.90;;;;;;6119681;23;20674;-76
2023/01/26 01:30:06;;;;;;;2.42;2.33;;;-0.70;99.90;;;;;;6096710;23;20372;-76
2023/01/26 01:32:38;;;;;;;3.00;2.90;;;-0.60;99.90;;;;;;6095303;23;20364;-77
2023/01/26 01:35:06;;;;;;;2.90;2.80;;;-0.60;99.90;;;;;;6096806;23;20467;-80
2023/01/26 01:37:33;;;;;;;2.58;2.47;;;-0.50;99.90;;;;;;6095183;23;20372;-78
2023/01/26 01:40:00;;;;;;;2.83;2.72;;;-0.50;99.90;;;;;;6095721;23;20371;-76
2023/01/26 01:42:27;;;;;;;2.70;2.60;;;-0.40;99.90;;;;;;6095997;23;20402;-77
2023/01/26 01:45:33;;;;;;;2.85;2.65;;;-0.30;99.90;;;;;;6096217;23;20406;-77
2023/01/26 01:48:04;;;;;;;2.72;2.63;;;-0.30;99.90;;;;;;6085325;23;20376;-76
2023/01/26 01:50:37;;;;;;;2.72;2.63;;;-0.20;99.90;;;;;;6098131;23;20408;-77
2023/01/26 01:53:08;;;;;;;3.00;2.90;;;-0.20;99.90;;;;;;6097575;23;20448;-77
2023/01/26 01:55:35;;;;;;;2.85;2.70;;;-0.10;99.90;;;;;;6098514;23;20861;-77
2023/01/26 01:58:04;;;;;;;2.88;2.78;;;-0.10;99.90;;;;;;6097229;23;20402;-77
2023/01/26 02:00:30;;;;;;;3.00;2.90;;;-0.10;99.90;;;;;;6098249;23;20372;-76
